| Date | Time | Temp. (oF) | Dew Point (oF) | Rel. Hum. (%) | Press. (in.) | Wind Dir. | Wind Speed (mph) | Hourly Rainfall (in.) |
|
|---|---|---|---|---|---|---|---|---|---|
| 1 | 01/05 | 00:00 | 29 | 10 | 45 | 29.87 | WNW | 6 | 0.00 |
| 2 | 01/04 | 23:00 | 30 | 11 | 45 | 29.85 | WNW | 7 | 0.00 |
| 3 | 01/04 | 22:00 | 32 | 10 | 41 | 29.83 | WNW | 6 | 0.00 |
| 4 | 01/04 | 21:00 | 33 | 10 | 38 | 29.79 | WNW | 10 | 0.00 |
| 5 | 01/04 | 20:00 | 35 | 13 | 41 | 29.77 | WNW | 16 | 0.00 |
| 6 | 01/04 | 19:00 | 36 | 13 | 40 | 29.75 | WNW | 6 | 0.00 |
| 7 | 01/04 | 18:00 | 39 | 14 | 36 | 29.70 | WNW | 10 | 0.00 |
| 8 | 01/04 | 17:00 | 42 | 14 | 33 | 29.65 | WNW | 15 | 0.00 |
| 9 | 01/04 | 16:00 | 45 | 19 | 36 | 29.61 | SW | 8 | 0.00 |
| 10 | 01/04 | 15:00 | 48 | 25 | 42 | 29.59 | WNW | 8 | 0.00 |
| 11 | 01/04 | 14:00 | 48 | 28 | 47 | 29.59 | WNW | 7 | 0.00 |
| 12 | 01/04 | 13:00 | 50 | 36 | 59 | 29.59 | WNW | 4 | 0.00 |
| 13 | 01/04 | 12:00 | 47 | 38 | 71 | 29.60 | WNW | 4 | 0.00 |
| 14 | 01/04 | 11:00 | 47 | 42 | 85 | 29.60 | W | 3 | 0.00 |
| 15 | 01/04 | 10:00 | 45 | 43 | 94 | 29.58 | W | 2 | 0.00 |
| 16 | 01/04 | 09:00 | 44 | 42 | 96 | 29.55 | WNW | 0 | 0.00 |
| 17 | 01/04 | 08:00 | 40 | 40 | 100 | 29.55 | WNW | 0 | 0.00 |
| 18 | 01/04 | 07:00 | 41 | 41 | 100 | 29.52 | WNW | 0 | 0.00 |
| 19 | 01/04 | 06:00 | 42 | 41 | 100 | 29.53 | WNW | 0 | 0.00 |
| 20 | 01/04 | 05:00 | 41 | 41 | 100 | 29.51 | WNW | 0 | 0.00 |
| 21 | 01/04 | 04:00 | 41 | 41 | 100 | 29.51 | WNW | 0 | 0.00 |
| 22 | 01/04 | 03:00 | 41 | 41 | 100 | 29.49 | WNW | 0 | 0.00 |
| 23 | 01/04 | 02:00 | 41 | 41 | 100 | 29.50 | WNW | 0 | 0.00 |
| 24 | 01/04 | 01:00 | 40 | 40 | 100 | 29.51 | WNW | 0 | 0.01 |